This is the latest recevied weather packets stored in our database for station/object N8RJC-13. If no packets are shown the sender has not sent any weather packets the latest 1 day(s).
| Time | Temp. | Humidity | Pressure | Rain* | Wind** | Luminosity | Snow |
|---|---|---|---|---|---|---|---|
| 1778058261 | 6.11° C | 94% | 985 hPa | 0 mm | 1.79 m/s, 7° | - | - |
| 1778058201 | 6.11° C | 94% | 985 hPa | 0 mm | 1.79 m/s, 7° | - | - |
| 1778058141 | 6.11° C | 94% | 985 hPa | 0 mm | 1.79 m/s, 7° | - | - |
| 1778057901 | 6.11° C | 94% | 985 hPa | 0 mm | 1.34 m/s, 351° | - | - |
| 1778057721 | 6.11° C | 94% | 985 hPa | 0 mm | 1.34 m/s, 351° | - | - |
| 1778057661 | 6.11° C | 94% | 985.1 hPa | 0 mm | 2.24 m/s, 348° | - | - |
| 1778057481 | 6.11° C | 94% | 985.1 hPa | 0 mm | 2.24 m/s, 348° | - | - |
| 1778057421 | 6.11° C | 94% | 985.1 hPa | 0 mm | 2.24 m/s, 348° | - | - |
| 1778057361 | 6.11° C | 94% | 985.2 hPa | 0 mm | 0.45 m/s, 6° | - | - |
| 1778057241 | 6.11° C | 94% | 985.2 hPa | 0 mm | 0.45 m/s, 6° | - | - |
| 1778057181 | 6.11° C | 94% | 985.2 hPa | 0 mm | 0.45 m/s, 6° | - | - |
| 1778057121 | 6.11° C | 94% | 985.2 hPa | 0 mm | 0.45 m/s, 6° | - | - |
| 1778057061 | 6.11° C | 94% | 984.9 hPa | 0 mm | 0.45 m/s, 348° | - | - |
| 1778057001 | 6.11° C | 94% | 984.9 hPa | 0 mm | 0.45 m/s, 348° | - | - |
| 1778056941 | 6.11° C | 94% | 984.9 hPa | 0 mm | 0.45 m/s, 348° | - | - |
| 1778056881 | 6.11° C | 94% | 984.9 hPa | 0 mm | 0.45 m/s, 348° | - | - |
| 1778056821 | 6.11° C | 94% | 984.9 hPa | 0 mm | 0.45 m/s, 348° | - | - |
| 1778056761 | 6.11° C | 94% | 984.8 hPa | 0 mm | 1.34 m/s, 345° | - | - |
| 1778056701 | 6.11° C | 94% | 984.8 hPa | 0 mm | 1.34 m/s, 345° | - | - |
| 1778056641 | 6.11° C | 94% | 984.8 hPa | 0 mm | 1.34 m/s, 345° | - | - |
| 1778056521 | 6.11° C | 94% | 984.8 hPa | 0 mm | 1.34 m/s, 345° | - | - |
| 1778056401 | 6.11° C | 94% | 985.2 hPa | 0 mm | 0.45 m/s, 8° | - | - |
| 1778056161 | 6.11° C | 94% | 985 hPa | 0 mm | 0.45 m/s, 5° | - | - |
| 1778056101 | 6.11° C | 94% | 985 hPa | 0 mm | 0.45 m/s, 5° | - | - |
| 1778056041 | 6.11° C | 94% | 985 hPa | 0 mm | 0.45 m/s, 5° | - | - |
* Rain latest hour (hover to see other rain measurements)
** Current wind speed in m/s (hover to see current wind gust speed)